createdAt,value
2017-12-15T00:01:09.084Z,98821.28
2017-12-15T00:03:34.835Z,98819.20
2017-12-15T00:06:00.590Z,98824.63
2017-12-15T00:08:26.369Z,98820.80
2017-12-15T00:10:52.152Z,98826.22
2017-12-15T00:13:17.912Z,98827.47
2017-12-15T00:15:43.664Z,98826.84
2017-12-15T00:18:09.431Z,98831.91
2017-12-15T00:20:35.199Z,98831.64
2017-12-15T00:23:00.971Z,98841.17
2017-12-15T00:25:26.745Z,98836.58
2017-12-15T00:27:52.501Z,98838.91
2017-12-15T00:30:18.275Z,98842.33
2017-12-15T00:32:44.024Z,98849.88
2017-12-15T00:35:09.799Z,98850.16
2017-12-15T00:37:35.561Z,98855.64
2017-12-15T00:40:01.328Z,98856.09
2017-12-15T00:42:27.074Z,98861.09
2017-12-15T00:44:52.853Z,98858.84
2017-12-15T00:47:18.620Z,98855.09
2017-12-15T00:49:44.392Z,98849.04
2017-12-15T00:52:10.160Z,98854.10
2017-12-15T00:54:35.917Z,98861.56
2017-12-15T00:57:01.688Z,98862.05
2017-12-15T00:59:27.448Z,98856.95
2017-12-15T01:01:53.227Z,98851.48
2017-12-15T01:04:19.012Z,98858.31
2017-12-15T01:06:44.771Z,98858.36
2017-12-15T01:09:10.570Z,98862.58
2017-12-15T01:11:36.314Z,98865.67
2017-12-15T01:14:02.079Z,98862.96
2017-12-15T01:16:27.856Z,98865.09
2017-12-15T01:18:53.608Z,98869.61
2017-12-15T01:21:19.378Z,98874.45
2017-12-15T01:23:45.123Z,98875.52
2017-12-15T01:26:10.910Z,98878.23
2017-12-15T01:28:36.662Z,98875.06
2017-12-15T01:31:02.433Z,98871.14
2017-12-15T01:33:28.199Z,98877.06
2017-12-15T01:35:53.967Z,98872.90
2017-12-15T01:38:19.719Z,98867.13
2017-12-15T01:40:45.494Z,98871.01
2017-12-15T01:43:11.264Z,98872.16
2017-12-15T01:45:37.018Z,98868.67
2017-12-15T01:48:02.802Z,98878.42
2017-12-15T01:50:28.569Z,98880.30
2017-12-15T01:52:54.343Z,98871.34
2017-12-15T01:55:20.099Z,98877.74
2017-12-15T01:57:45.879Z,98880.16
2017-12-15T02:00:11.648Z,98882.05
2017-12-15T02:02:37.428Z,98877.06
2017-12-15T02:05:03.179Z,98880.08
2017-12-15T02:07:28.942Z,98877.47
2017-12-15T02:09:54.691Z,98878.19
2017-12-15T02:12:20.444Z,98879.59
2017-12-15T02:14:46.190Z,98886.23
2017-12-15T02:17:11.988Z,98880.08
2017-12-15T02:19:37.759Z,98894.45
2017-12-15T02:22:03.514Z,98896.83
2017-12-15T02:24:29.291Z,98893.34
2017-12-15T02:26:55.062Z,98904.34
2017-12-15T02:29:20.830Z,98907.74
2017-12-15T02:31:46.589Z,98913.31
2017-12-15T02:34:12.381Z,98920.23
2017-12-15T02:36:38.148Z,98913.69
2017-12-15T02:39:04.007Z,98915.61
2017-12-15T02:41:29.755Z,98912.88
2017-12-15T02:43:55.521Z,98917.86
2017-12-15T02:46:21.295Z,98915.63
2017-12-15T02:48:47.064Z,98913.20
2017-12-15T02:51:12.811Z,98918.92
2017-12-15T02:53:38.585Z,98920.70
2017-12-15T02:56:04.335Z,98925.57
2017-12-15T02:58:30.120Z,98926.76
2017-12-15T03:00:55.887Z,98921.00
2017-12-15T03:03:21.651Z,98924.83
2017-12-15T03:05:47.423Z,98925.31
2017-12-15T03:08:13.182Z,98920.42
2017-12-15T03:10:38.961Z,98914.14
2017-12-15T03:13:04.720Z,98899.17
2017-12-15T03:15:30.487Z,98926.00
2017-12-15T03:17:56.230Z,98926.27
2017-12-15T03:20:21.995Z,98927.23
2017-12-15T03:22:47.742Z,98929.20
2017-12-15T03:25:13.513Z,98935.16
2017-12-15T03:27:39.273Z,98931.67
2017-12-15T03:30:05.046Z,98930.27
2017-12-15T03:32:30.816Z,98936.98
2017-12-15T03:34:56.581Z,98940.01
2017-12-15T03:37:22.337Z,98942.48
2017-12-15T03:39:48.126Z,98947.22
2017-12-15T03:42:13.870Z,98942.48
2017-12-15T03:44:39.658Z,98941.35
2017-12-15T03:47:05.414Z,98938.09
2017-12-15T03:49:31.162Z,98946.32
2017-12-15T03:51:56.933Z,98948.41
2017-12-15T03:54:22.680Z,98952.38
2017-12-15T03:56:48.447Z,98952.38
2017-12-15T03:59:14.194Z,98951.94
2017-12-15T04:01:39.961Z,98957.69
2017-12-15T04:04:05.703Z,98942.66
2017-12-15T04:06:31.488Z,98960.69
2017-12-15T04:08:57.269Z,98962.22
2017-12-15T04:11:23.041Z,98956.47
2017-12-15T04:13:48.801Z,98953.41
2017-12-15T04:16:14.572Z,98957.73
2017-12-15T04:18:40.349Z,98957.25
2017-12-15T04:21:06.123Z,98961.70
2017-12-15T04:23:31.883Z,98960.43
2017-12-15T04:25:57.655Z,98966.80
2017-12-15T04:28:23.412Z,98963.27
2017-12-15T04:30:49.173Z,98969.37
2017-12-15T04:33:14.939Z,98971.84
2017-12-15T04:35:40.723Z,98969.55
2017-12-15T04:38:06.484Z,98977.38
2017-12-15T04:40:32.236Z,98977.73
2017-12-15T04:42:57.999Z,98981.17
2017-12-15T04:45:23.755Z,98987.70
2017-12-15T04:47:49.531Z,98993.67
2017-12-15T04:50:15.271Z,98996.37
2017-12-15T04:52:41.063Z,98987.44
2017-12-15T04:55:06.810Z,98991.28
2017-12-15T04:57:32.565Z,98988.88
2017-12-15T04:59:58.337Z,98993.06
2017-12-15T05:02:24.091Z,99004.19
2017-12-15T05:04:49.855Z,99004.66
2017-12-15T05:07:15.615Z,98999.78
2017-12-15T05:09:41.381Z,99013.81
2017-12-15T05:12:07.127Z,99010.23
2017-12-15T05:14:32.891Z,99020.70
2017-12-15T05:16:58.664Z,99017.46
2017-12-15T05:19:24.419Z,99020.72
2017-12-15T05:21:50.173Z,99020.58
2017-12-15T05:24:15.939Z,99015.44
2017-12-15T05:26:41.680Z,99018.30
2017-12-15T05:29:07.455Z,99024.19
2017-12-15T05:31:33.222Z,99018.17
2017-12-15T05:33:58.986Z,99019.16
2017-12-15T05:36:24.736Z,99023.58
2017-12-15T05:38:50.496Z,99022.91
2017-12-15T05:41:16.253Z,99029.28
2017-12-15T05:43:42.021Z,99031.79
2017-12-15T05:46:07.787Z,99034.04
2017-12-15T05:48:33.551Z,99035.20
2017-12-15T05:50:59.308Z,99038.08
2017-12-15T05:53:25.054Z,99040.62
2017-12-15T05:55:50.820Z,99040.73
2017-12-15T05:58:16.568Z,99036.10
2017-12-15T06:00:42.328Z,99042.48
2017-12-15T06:03:08.079Z,99049.20
2017-12-15T06:05:33.847Z,99058.83
2017-12-15T06:07:59.591Z,99055.94
2017-12-15T06:10:25.347Z,99059.69
2017-12-15T06:12:51.106Z,99060.05
2017-12-15T06:17:58.797Z,99074.70
2017-12-15T06:20:24.567Z,99071.80
2017-12-15T06:22:50.312Z,99070.30
2017-12-15T06:25:16.075Z,99069.56
2017-12-15T06:27:41.824Z,99080.09
2017-12-15T06:30:07.589Z,99089.34
2017-12-15T06:32:33.355Z,99090.66
2017-12-15T06:34:59.121Z,99090.10
2017-12-15T06:37:24.876Z,99094.23
2017-12-15T06:39:50.614Z,99095.61
2017-12-15T06:42:16.399Z,99093.55
2017-12-15T06:44:42.163Z,99101.83
2017-12-15T06:47:07.923Z,99105.59
2017-12-15T06:49:33.674Z,99110.02
2017-12-15T06:51:59.435Z,99113.15
2017-12-15T06:54:25.196Z,99113.98
2017-12-15T06:56:50.955Z,99113.11
2017-12-15T06:59:16.707Z,99115.41
2017-12-15T07:01:42.455Z,99113.55
2017-12-15T07:04:08.211Z,99120.23
2017-12-15T07:06:34.039Z,99123.86
2017-12-15T07:08:59.747Z,99131.11
2017-12-15T07:11:25.504Z,99126.08
2017-12-15T07:13:51.271Z,99134.75
2017-12-15T07:16:17.019Z,99142.33
2017-12-15T07:18:42.772Z,99148.27
2017-12-15T07:21:08.510Z,99160.60
2017-12-15T07:23:34.268Z,99159.41
2017-12-15T07:26:00.014Z,99163.89
2017-12-15T07:28:25.774Z,99167.15
2017-12-15T07:30:51.536Z,99172.30
2017-12-15T07:33:17.307Z,99174.75
2017-12-15T07:35:43.046Z,99175.35
2017-12-15T07:38:08.791Z,99173.72
2017-12-15T07:40:34.565Z,99172.22
2017-12-15T07:43:00.324Z,99173.05
2017-12-15T07:45:26.146Z,99175.47
2017-12-15T07:47:51.863Z,99178.13
2017-12-15T07:50:17.627Z,99179.87
2017-12-15T07:52:43.383Z,99177.58
2017-12-15T07:55:09.144Z,99182.33
2017-12-15T07:57:34.908Z,99178.17
2017-12-15T08:00:00.673Z,99183.83
2017-12-15T08:02:26.415Z,99183.47
2017-12-15T08:04:52.174Z,99180.97
2017-12-15T08:07:18.033Z,99186.44
2017-12-15T08:09:43.699Z,99187.88
2017-12-15T08:12:09.447Z,99186.28
2017-12-15T08:14:35.213Z,99190.84
2017-12-15T08:17:00.963Z,99196.23
2017-12-15T08:19:26.728Z,99195.11
2017-12-15T08:21:52.473Z,99205.70
2017-12-15T08:24:18.239Z,99203.52
2017-12-15T08:26:44.011Z,99209.23
2017-12-15T08:29:09.750Z,99212.04
2017-12-15T08:31:35.527Z,99215.85
2017-12-15T08:34:01.304Z,99220.37
2017-12-15T08:36:27.076Z,99215.81
2017-12-15T08:38:52.821Z,99223.86
2017-12-15T08:41:18.597Z,99226.71
2017-12-15T08:43:44.341Z,99225.00
2017-12-15T08:46:10.102Z,99231.70
2017-12-15T08:48:35.870Z,99234.47
2017-12-15T08:51:01.622Z,99237.77
2017-12-15T08:53:27.382Z,99242.01
2017-12-15T08:55:53.135Z,99218.98
2017-12-15T08:58:18.890Z,99244.95
2017-12-15T09:00:44.659Z,99233.30
2017-12-15T09:03:10.411Z,99262.34
2017-12-15T09:05:36.175Z,99262.42
2017-12-15T09:08:01.931Z,99269.84
2017-12-15T09:10:27.691Z,99250.97
2017-12-15T09:12:53.455Z,99270.87
2017-12-15T09:15:19.210Z,99272.93
2017-12-15T09:17:44.980Z,99276.34
2017-12-15T09:20:10.727Z,99281.96
2017-12-15T09:22:36.493Z,99283.91
2017-12-15T09:25:02.244Z,99286.84
2017-12-15T09:27:27.995Z,99293.58
2017-12-15T09:29:53.756Z,99291.56
2017-12-15T09:32:19.507Z,99301.23
2017-12-15T09:34:45.263Z,99301.58
2017-12-15T09:37:11.016Z,99298.56
2017-12-15T09:39:36.758Z,99305.78
2017-12-15T09:42:02.523Z,99308.46
2017-12-15T09:44:28.276Z,99308.53
2017-12-15T09:46:54.034Z,99311.47
2017-12-15T09:49:19.796Z,99311.36
2017-12-15T09:51:45.555Z,99310.77
2017-12-15T09:54:11.319Z,99307.87
2017-12-15T09:56:37.072Z,99312.88
2017-12-15T09:59:02.835Z,99316.64
2017-12-15T10:01:28.599Z,99320.05
2017-12-15T10:03:54.352Z,99322.34
2017-12-15T10:06:20.102Z,99321.88
2017-12-15T10:08:45.867Z,99331.98
2017-12-15T10:11:11.611Z,99336.02
2017-12-15T10:13:37.357Z,99336.38
2017-12-15T10:16:03.134Z,99334.60
2017-12-15T10:18:28.875Z,99335.20
2017-12-15T10:20:54.641Z,99341.19
2017-12-15T10:23:20.399Z,99335.83
2017-12-15T10:25:46.151Z,99340.47
2017-12-15T10:28:11.898Z,99338.22
2017-12-15T10:30:37.667Z,99350.63
2017-12-15T10:33:03.426Z,99343.97
2017-12-15T10:35:29.193Z,99349.12
2017-12-15T10:37:54.939Z,99353.97
2017-12-15T10:40:20.691Z,99355.59
2017-12-15T10:42:46.433Z,99358.36
2017-12-15T10:45:12.196Z,99354.88
2017-12-15T10:47:37.954Z,99357.18
2017-12-15T10:50:03.724Z,99357.45
2017-12-15T10:52:29.476Z,99358.88
2017-12-15T10:54:55.233Z,99363.43
2017-12-15T10:57:20.968Z,99358.55
2017-12-15T10:59:46.728Z,99367.80
2017-12-15T11:02:12.491Z,99368.42
2017-12-15T11:04:38.244Z,99366.27
2017-12-15T11:07:04.012Z,99367.97
2017-12-15T11:09:29.756Z,99374.59
2017-12-15T11:11:56.127Z,99379.79
2017-12-15T11:14:21.898Z,99377.66
2017-12-15T11:16:47.663Z,99388.80
2017-12-15T11:19:13.411Z,99392.44
2017-12-15T11:21:39.176Z,99391.75
2017-12-15T11:24:04.932Z,99403.30
2017-12-15T11:26:30.751Z,99405.22
2017-12-15T11:28:56.571Z,99402.20
2017-12-15T11:31:22.275Z,99395.72
2017-12-15T11:33:48.043Z,99392.30
2017-12-15T11:36:13.803Z,99396.07
2017-12-15T11:38:39.543Z,99399.56
2017-12-15T11:41:05.286Z,99399.39
2017-12-15T11:43:31.057Z,99396.98
2017-12-15T11:45:56.807Z,99397.42
2017-12-15T11:48:22.588Z,99398.36
2017-12-15T11:50:48.342Z,99388.23
2017-12-15T11:53:14.103Z,99397.59
2017-12-15T11:55:39.868Z,99390.69
2017-12-15T11:58:05.631Z,99395.56
2017-12-15T12:00:31.387Z,99395.56
2017-12-15T12:02:57.154Z,99399.22
2017-12-15T12:05:22.908Z,99406.64
2017-12-15T12:07:48.676Z,99415.71
2017-12-15T12:10:14.428Z,99423.89
2017-12-15T12:12:40.184Z,99423.56
2017-12-15T12:15:05.954Z,99425.96
2017-12-15T12:17:31.713Z,99421.42
2017-12-15T12:19:57.473Z,99427.45
2017-12-15T12:22:23.231Z,99428.72
2017-12-15T12:24:48.999Z,99431.52
2017-12-15T12:27:14.762Z,99436.47
2017-12-15T12:29:40.532Z,99437.09
2017-12-15T12:32:06.292Z,99445.19
2017-12-15T12:34:32.067Z,99452.06
2017-12-15T12:36:57.808Z,99451.70
2017-12-15T12:39:23.571Z,99451.19
2017-12-15T12:41:49.310Z,99458.57
2017-12-15T12:44:15.060Z,99456.86
2017-12-15T12:46:40.816Z,99460.72
2017-12-15T12:49:06.582Z,99466.86
2017-12-15T12:51:32.326Z,99465.73
2017-12-15T12:53:58.072Z,99470.61
2017-12-15T12:56:23.835Z,99473.00
2017-12-15T12:58:49.584Z,99477.66
2017-12-15T13:01:15.364Z,99476.38
2017-12-15T13:03:41.120Z,99480.42
2017-12-15T13:06:06.887Z,99484.39
2017-12-15T13:08:32.627Z,99485.02
2017-12-15T13:10:58.397Z,99490.29
2017-12-15T13:13:24.148Z,99493.52
2017-12-15T13:15:49.920Z,99489.11
2017-12-15T13:18:15.683Z,99494.52
2017-12-15T13:20:41.470Z,99499.72
2017-12-15T13:23:07.263Z,99500.35
2017-12-15T13:25:33.030Z,99503.38
2017-12-15T13:27:58.779Z,99502.12
2017-12-15T13:30:24.536Z,99506.02
2017-12-15T13:32:50.304Z,99505.08
2017-12-15T13:35:16.068Z,99509.04
2017-12-15T13:37:41.824Z,99511.05
2017-12-15T13:40:07.585Z,99509.71
2017-12-15T13:42:33.354Z,99512.59
2017-12-15T13:44:59.091Z,99531.34
2017-12-15T13:47:24.859Z,99522.50
2017-12-15T13:49:50.748Z,99527.31
2017-12-15T13:52:16.530Z,99533.95
2017-12-15T13:54:42.299Z,99544.26
2017-12-15T13:57:08.046Z,99554.85
2017-12-15T13:59:33.822Z,99554.29
2017-12-15T14:01:59.583Z,99557.28
2017-12-15T14:04:25.346Z,99570.92
2017-12-15T14:06:51.135Z,99567.53
2017-12-15T14:09:16.872Z,99569.27
2017-12-15T14:11:42.617Z,99576.14
2017-12-15T14:14:08.362Z,99563.41
2017-12-15T14:16:34.119Z,99571.70
2017-12-15T14:18:59.880Z,99577.52
2017-12-15T14:21:25.640Z,99580.86
2017-12-15T14:23:51.420Z,99580.73
2017-12-15T14:26:17.179Z,99587.77
2017-12-15T14:28:42.942Z,99581.39
2017-12-15T14:31:08.702Z,99589.52
2017-12-15T14:33:34.483Z,99589.52
2017-12-15T14:36:00.232Z,99592.91
2017-12-15T14:38:26.002Z,99598.45
2017-12-15T14:40:51.748Z,99599.36
2017-12-15T14:43:17.504Z,99596.87
2017-12-15T14:45:43.276Z,99606.00
2017-12-15T14:48:09.033Z,99606.09
2017-12-15T14:50:34.800Z,99610.36
2017-12-15T14:53:00.556Z,99616.12
2017-12-15T14:55:26.326Z,99609.89
2017-12-15T14:57:52.072Z,99620.36
2017-12-15T15:00:17.860Z,99616.12
2017-12-15T15:02:43.648Z,99625.80
2017-12-15T15:05:09.416Z,99623.94
2017-12-15T15:07:35.171Z,99617.74
2017-12-15T15:10:00.948Z,99621.73
2017-12-15T15:12:26.688Z,99617.03
2017-12-15T15:14:52.444Z,99623.48
2017-12-15T15:17:18.230Z,99624.67
2017-12-15T15:19:43.956Z,99623.45
2017-12-15T15:22:09.714Z,99625.28
2017-12-15T15:24:35.482Z,99629.93
2017-12-15T15:27:01.226Z,99626.85
2017-12-15T15:29:26.975Z,99630.78
2017-12-15T15:31:52.744Z,99630.05
2017-12-15T15:34:18.511Z,99628.33
2017-12-15T15:36:44.275Z,99634.81
2017-12-15T15:39:10.035Z,99631.67
2017-12-15T15:41:35.815Z,99631.11
2017-12-15T15:44:01.594Z,99642.77
2017-12-15T15:46:27.352Z,99644.59
2017-12-15T15:48:53.132Z,99639.42
2017-12-15T15:51:18.911Z,99640.48
2017-12-15T15:53:44.743Z,99653.11
2017-12-15T15:56:10.515Z,99655.66
2017-12-15T15:58:36.310Z,99650.67
2017-12-15T16:01:02.068Z,99653.83
2017-12-15T16:03:27.845Z,99660.30
2017-12-15T16:05:53.619Z,99658.56
2017-12-15T16:08:19.419Z,99668.50
2017-12-15T16:10:45.175Z,99665.92
2017-12-15T16:13:10.968Z,99660.92
2017-12-15T16:15:36.728Z,99619.61
2017-12-15T16:18:02.491Z,99670.47
2017-12-15T16:20:28.252Z,99670.00
2017-12-15T16:22:54.011Z,99667.53
2017-12-15T16:25:20.335Z,99671.64
2017-12-15T16:27:52.074Z,99677.11
2017-12-15T16:30:18.045Z,99674.64
2017-12-15T16:32:44.480Z,99691.67
2017-12-15T16:35:11.148Z,99686.25
2017-12-15T16:37:37.261Z,99688.90
2017-12-15T16:40:04.593Z,99690.27
2017-12-15T16:42:30.371Z,99691.11
2017-12-15T16:44:56.404Z,99689.09
2017-12-15T16:47:22.639Z,99695.16
2017-12-15T16:49:48.579Z,99700.97
2017-12-15T16:52:14.689Z,99702.70
2017-12-15T16:54:40.615Z,99702.16
2017-12-15T16:57:06.549Z,99706.14
2017-12-15T16:59:32.371Z,99690.58
2017-12-15T17:01:58.132Z,99711.83
2017-12-15T17:04:23.899Z,99713.63
2017-12-15T17:06:49.706Z,99707.24
2017-12-15T17:09:16.612Z,99706.73
2017-12-15T17:11:42.400Z,99710.66
2017-12-15T17:14:08.199Z,99708.59
2017-12-15T17:16:33.965Z,99713.39
2017-12-15T17:18:59.716Z,99718.95
2017-12-15T17:21:25.502Z,99716.23
2017-12-15T17:23:51.276Z,99719.65
2017-12-15T17:26:17.038Z,99722.45
2017-12-15T17:28:42.784Z,99713.37
2017-12-15T17:31:08.560Z,99718.34
2017-12-15T17:33:34.335Z,99722.30
2017-12-15T17:36:00.115Z,99721.85
2017-12-15T17:38:25.894Z,99723.98
2017-12-15T17:40:51.652Z,99725.59
2017-12-15T17:43:17.394Z,99727.41
2017-12-15T17:45:43.160Z,99728.64
2017-12-15T17:48:08.918Z,99735.27
2017-12-15T17:50:34.684Z,99741.25
2017-12-15T17:53:00.489Z,99744.05
2017-12-15T17:56:22.295Z,99744.00
2017-12-15T17:58:48.056Z,99745.55
2017-12-15T18:01:13.868Z,99748.38
2017-12-15T18:03:39.628Z,99742.02
2017-12-15T18:06:05.396Z,99746.02
2017-12-15T18:08:31.157Z,99750.79
2017-12-15T18:10:58.273Z,99750.81
2017-12-15T18:13:25.549Z,99756.97
2017-12-15T18:15:53.080Z,99764.78
2017-12-15T18:18:18.920Z,99766.90
2017-12-15T18:20:44.670Z,99770.39
2017-12-15T18:23:10.441Z,99773.48
2017-12-15T18:25:36.197Z,99777.02
2017-12-15T18:28:01.973Z,99775.70
2017-12-15T18:30:27.733Z,99774.95
2017-12-15T18:32:53.508Z,99777.56
2017-12-15T18:35:19.378Z,99784.93
2017-12-15T18:37:45.248Z,99779.63
2017-12-15T18:40:10.996Z,99781.00
2017-12-15T18:42:36.763Z,99782.77
2017-12-15T18:45:02.511Z,99787.55
2017-12-15T18:47:28.283Z,99777.13
2017-12-15T18:49:54.055Z,99774.04
2017-12-15T18:52:19.832Z,99769.62
2017-12-15T18:54:45.598Z,99762.75
2017-12-15T18:57:11.347Z,99767.61
2017-12-15T18:59:37.215Z,99770.30
2017-12-15T19:02:03.023Z,99769.94
2017-12-15T19:04:28.803Z,99774.77
2017-12-15T19:06:54.718Z,99776.95
2017-12-15T19:10:17.336Z,99777.92
2017-12-15T19:12:43.110Z,99760.74
2017-12-15T19:15:08.862Z,99777.70
2017-12-15T19:17:34.611Z,99778.69
2017-12-15T19:20:00.387Z,99775.22
2017-12-15T19:22:26.147Z,99781.78
2017-12-15T19:24:52.152Z,99787.54
2017-12-15T19:27:17.918Z,99795.45
2017-12-15T19:29:43.745Z,99794.67
2017-12-15T19:32:09.461Z,99794.77
2017-12-15T19:34:35.224Z,99789.45
2017-12-15T19:37:00.982Z,99798.61
2017-12-15T19:39:26.747Z,99795.66
2017-12-15T19:41:52.507Z,99797.00
2017-12-15T19:44:18.268Z,99789.89
2017-12-15T19:46:44.023Z,99796.30
2017-12-15T19:49:09.792Z,99795.00
2017-12-15T19:51:35.535Z,99797.28
2017-12-15T19:54:01.327Z,99798.80
2017-12-15T19:56:27.059Z,99803.98
2017-12-15T19:58:52.846Z,99803.20
2017-12-15T20:01:18.591Z,99814.25
2017-12-15T20:03:44.390Z,99815.88
2017-12-15T20:06:10.175Z,99818.70
2017-12-15T20:08:36.105Z,99823.34
2017-12-15T20:11:01.881Z,99825.22
2017-12-15T20:13:27.636Z,99827.48
2017-12-15T20:15:53.413Z,99832.74
2017-12-15T20:18:19.172Z,99835.27
2017-12-15T20:20:44.947Z,99843.16
2017-12-15T20:23:10.688Z,99835.59
2017-12-15T20:25:36.492Z,99838.67
2017-12-15T20:28:02.275Z,99843.55
2017-12-15T20:30:28.058Z,99835.63
2017-12-15T20:32:53.836Z,99833.93
2017-12-15T20:35:19.638Z,99831.24
2017-12-15T20:37:45.390Z,99836.45
2017-12-15T20:40:11.149Z,99839.59
2017-12-15T20:42:36.916Z,99839.94
2017-12-15T20:45:02.676Z,99841.66
2017-12-15T20:47:28.440Z,99843.30
2017-12-15T20:52:26.798Z,99845.30
2017-12-15T20:54:52.547Z,99844.52
2017-12-15T20:57:18.315Z,99851.30
2017-12-15T20:59:44.089Z,99844.43
2017-12-15T21:02:09.835Z,99845.81
2017-12-15T21:04:35.595Z,99846.11
2017-12-15T21:07:01.364Z,99838.97
2017-12-15T21:09:27.150Z,99842.97
2017-12-15T21:11:52.936Z,99844.69
2017-12-15T21:14:18.812Z,99846.28
2017-12-15T21:16:44.605Z,99850.90
2017-12-15T21:19:10.343Z,99852.08
2017-12-15T21:21:36.078Z,99846.95
2017-12-15T21:24:01.824Z,99850.23
2017-12-15T21:26:27.578Z,99851.78
2017-12-15T21:28:53.347Z,99858.91
2017-12-15T21:31:19.103Z,99849.63
2017-12-15T21:33:44.878Z,99848.13
2017-12-15T21:36:10.627Z,99852.75
2017-12-15T21:38:36.388Z,99855.08
2017-12-15T21:41:02.135Z,99855.22
2017-12-15T21:43:27.905Z,99858.91
2017-12-15T21:45:53.647Z,99863.58
2017-12-15T21:48:19.415Z,99868.77
2017-12-15T21:50:45.168Z,99872.69
2017-12-15T21:53:10.924Z,99874.73
2017-12-15T21:55:36.650Z,99879.18
2017-12-15T21:58:09.435Z,99880.05
2017-12-15T22:00:35.191Z,99878.44
2017-12-15T22:03:00.968Z,99882.59
2017-12-15T22:05:26.720Z,99892.34
2017-12-15T22:07:52.475Z,99890.73
2017-12-15T22:10:18.215Z,99889.78
2017-12-15T22:12:43.967Z,99885.39
2017-12-15T22:15:09.743Z,99882.41
2017-12-15T22:17:35.487Z,99884.83
2017-12-15T22:20:01.251Z,99883.72
2017-12-15T22:22:27.011Z,99878.36
2017-12-15T22:24:52.772Z,99886.33
2017-12-15T22:27:18.543Z,99891.34
2017-12-15T22:29:44.304Z,99890.17
2017-12-15T22:32:10.059Z,99891.53
2017-12-15T22:34:35.843Z,99897.92
2017-12-15T22:37:01.592Z,99899.45
2017-12-15T22:39:27.346Z,99896.33
2017-12-15T22:41:53.095Z,99894.25
2017-12-15T22:44:18.869Z,99900.53
2017-12-15T22:46:44.615Z,99890.73
2017-12-15T22:49:10.364Z,99890.86
2017-12-15T22:51:36.126Z,99897.95
2017-12-15T22:54:01.907Z,99899.45
2017-12-15T22:56:27.647Z,99902.64
2017-12-15T22:58:53.405Z,99900.43
2017-12-15T23:01:19.172Z,99894.40
2017-12-15T23:03:44.930Z,99898.41
2017-12-15T23:06:10.687Z,99894.42
2017-12-15T23:08:36.475Z,99899.51
2017-12-15T23:11:02.236Z,99895.22
2017-12-15T23:13:27.992Z,99899.28
2017-12-15T23:15:53.756Z,99895.61
2017-12-15T23:18:19.491Z,99896.64
2017-12-15T23:20:45.243Z,99890.06
2017-12-15T23:23:10.995Z,99900.41
2017-12-15T23:25:36.755Z,99902.82
2017-12-15T23:28:02.511Z,99903.15
2017-12-15T23:30:28.272Z,99904.98
2017-12-15T23:32:54.022Z,99894.53
2017-12-15T23:35:19.803Z,99906.31
2017-12-15T23:37:45.568Z,99907.42
2017-12-15T23:40:11.506Z,99895.84
2017-12-15T23:42:37.247Z,99902.56
2017-12-15T23:45:03.035Z,99898.56
2017-12-15T23:47:28.804Z,99900.92
2017-12-15T23:49:54.611Z,99905.33
2017-12-15T23:52:20.534Z,99903.66
2017-12-15T23:54:58.766Z,99903.49
2017-12-15T23:57:24.518Z,99908.63
2017-12-15T23:59:50.331Z,99910.24
